createdAt,value
2023-01-09T00:12:25.691Z,102.61
2023-01-09T00:41:02.988Z,101.89
2023-01-09T01:09:47.217Z,103.08
2023-01-09T01:38:31.442Z,102.57
2023-01-09T02:07:10.016Z,100.83
2023-01-09T02:35:53.686Z,99.44
2023-01-09T03:04:36.812Z,99.93
2023-01-09T03:33:31.049Z,95.45
2023-01-09T04:02:27.124Z,92.37
2023-01-09T04:31:16.019Z,94.38
2023-01-09T05:00:00.165Z,89.92
2023-01-09T05:28:55.091Z,89.68
2023-01-09T05:57:43.271Z,86.38
2023-01-09T06:26:14.421Z,86.89
2023-01-09T06:54:50.981Z,87.06
2023-01-09T07:23:10.858Z,87.17
2023-01-09T07:51:44.985Z,87.2
2023-01-09T08:20:21.383Z,84.41
2023-01-09T08:48:58.238Z,82.95
2023-01-09T09:17:40.811Z,80.17
2023-01-09T09:46:21.343Z,79.65
2023-01-09T10:15:02.930Z,78.6
2023-01-09T10:44:03.575Z,81.5
2023-01-09T11:12:44.530Z,80.66
2023-01-09T11:41:27.087Z,83.55
2023-01-09T12:10:23.140Z,87.84
2023-01-09T12:38:43.042Z,91.43
2023-01-09T13:07:27.082Z,90.99
2023-01-09T13:36:15.165Z,90
2023-01-09T14:04:52.311Z,86.8
2023-01-09T14:33:35.651Z,86.54
2023-01-09T15:02:05.240Z,91.28
2023-01-09T15:30:46.574Z,92.07
2023-01-09T15:59:25.880Z,91.52
2023-01-09T16:27:51.643Z,90.54
2023-01-09T16:56:21.953Z,89.98
2023-01-09T17:24:42.315Z,94.08
2023-01-09T17:53:19.521Z,95.77
2023-01-09T18:22:11.662Z,95.11
2023-01-09T18:50:56.495Z,94.06
2023-01-09T19:19:50.432Z,92.11
2023-01-09T19:48:32.102Z,91.55
2023-01-09T20:17:16.021Z,91.83
2023-01-09T20:45:59.689Z,95.51
2023-01-09T21:14:47.932Z,96.58
2023-01-09T21:43:30.535Z,98.08
2023-01-09T22:12:27.756Z,99.19
2023-01-09T22:41:29.479Z,99.07
2023-01-09T23:10:19.778Z,98.23
2023-01-09T23:39:16.276Z,97.5
